createdAt,value
2022-08-20T00:00:21.299Z,18.40
2022-08-20T00:04:03.743Z,18.40
2022-08-20T00:07:50.842Z,18.50
2022-08-20T00:11:34.973Z,18.50
2022-08-20T00:15:19.320Z,18.60
2022-08-20T00:19:02.428Z,18.50
2022-08-20T00:22:45.348Z,18.50
2022-08-20T00:26:29.466Z,18.50
2022-08-20T00:30:14.072Z,18.50
2022-08-20T00:33:57.911Z,18.40
2022-08-20T00:37:40.509Z,18.50
2022-08-20T00:41:25.781Z,18.60
2022-08-20T00:45:11.205Z,18.60
2022-08-20T00:48:57.883Z,18.60
2022-08-20T00:52:42.989Z,18.70
2022-08-20T00:56:37.087Z,18.80
2022-08-20T01:00:25.283Z,18.80
2022-08-20T01:04:07.637Z,18.80
2022-08-20T01:07:51.684Z,18.80
2022-08-20T01:11:37.102Z,18.70
2022-08-20T01:15:30.685Z,18.80
2022-08-20T01:19:29.570Z,18.80
2022-08-20T01:23:30.900Z,18.80
2022-08-20T01:27:15.533Z,18.80
2022-08-20T01:30:58.246Z,18.70
2022-08-20T01:34:40.665Z,18.50
2022-08-20T01:38:23.577Z,18.40
2022-08-20T01:42:12.805Z,18.30
2022-08-20T01:45:56.755Z,18.20
2022-08-20T01:49:43.934Z,18.20
2022-08-20T01:53:33.493Z,18.20
2022-08-20T01:57:18.588Z,18.20
2022-08-20T02:01:03.102Z,18.20
2022-08-20T02:04:45.680Z,18.10
2022-08-20T02:08:28.784Z,18.10
2022-08-20T02:12:14.261Z,18.00
2022-08-20T02:15:57.331Z,18.00
2022-08-20T02:19:44.694Z,18.00
2022-08-20T02:23:27.344Z,18.00
2022-08-20T02:27:10.345Z,18.20
2022-08-20T02:30:55.344Z,18.30
2022-08-20T02:34:38.660Z,18.30
2022-08-20T02:38:22.875Z,18.30
2022-08-20T02:42:05.754Z,18.30
2022-08-20T02:45:48.668Z,18.20
2022-08-20T02:49:31.687Z,18.30
2022-08-20T02:53:14.480Z,18.30
2022-08-20T02:56:58.578Z,18.20
2022-08-20T03:00:41.889Z,18.30
2022-08-20T03:04:24.582Z,18.30
2022-08-20T03:08:10.885Z,18.30
2022-08-20T03:11:54.325Z,18.40
2022-08-20T03:15:38.266Z,18.40
2022-08-20T03:19:20.767Z,18.40
2022-08-20T03:23:03.716Z,18.40
2022-08-20T03:26:46.676Z,18.40
2022-08-20T03:30:31.130Z,18.40
2022-08-20T03:34:15.288Z,18.40
2022-08-20T03:37:58.699Z,18.40
2022-08-20T03:41:41.227Z,18.50
2022-08-20T03:45:24.672Z,18.40
2022-08-20T03:49:07.469Z,18.40
2022-08-20T03:52:52.230Z,18.40
2022-08-20T03:56:34.671Z,18.50
2022-08-20T04:00:27.992Z,18.40
2022-08-20T04:04:12.078Z,18.40
2022-08-20T04:08:00.103Z,18.40
2022-08-20T04:11:46.471Z,18.40
2022-08-20T04:15:29.131Z,18.30
2022-08-20T04:19:11.796Z,18.30
2022-08-20T04:22:58.712Z,18.20
2022-08-20T04:26:42.088Z,18.20
2022-08-20T04:30:25.582Z,18.20
2022-08-20T04:34:08.338Z,18.20
2022-08-20T04:37:51.681Z,18.10
2022-08-20T04:41:35.583Z,18.10
2022-08-20T04:45:18.552Z,18.00
2022-08-20T04:49:03.204Z,18.00
2022-08-20T04:52:45.556Z,18.10
2022-08-20T04:56:33.120Z,18.10
2022-08-20T05:00:18.872Z,18.20
2022-08-20T05:04:01.809Z,18.20
2022-08-20T05:07:46.825Z,18.30
2022-08-20T05:11:35.553Z,18.40
2022-08-20T05:15:20.571Z,18.50
2022-08-20T05:19:03.007Z,18.60
2022-08-20T05:22:45.684Z,18.70
2022-08-20T05:26:28.430Z,18.80
2022-08-20T05:30:13.647Z,18.70
2022-08-20T05:33:57.869Z,18.80
2022-08-20T05:37:42.115Z,18.80
2022-08-20T05:41:28.504Z,18.80
2022-08-20T05:45:12.551Z,18.90
2022-08-20T05:48:54.974Z,18.80
2022-08-20T05:52:43.802Z,18.90
2022-08-20T05:56:31.115Z,18.90
2022-08-20T06:00:15.819Z,19.00
2022-08-20T06:04:16.364Z,19.00
2022-08-20T06:08:07.719Z,19.00
2022-08-20T06:11:51.004Z,19.20
2022-08-20T06:15:34.895Z,19.20
2022-08-20T06:19:25.024Z,19.30
2022-08-20T06:23:10.124Z,19.50
2022-08-20T06:26:57.167Z,19.40
2022-08-20T06:30:40.102Z,19.50
2022-08-20T06:34:28.195Z,19.50
2022-08-20T06:38:14.718Z,19.60
2022-08-20T06:41:58.535Z,19.70
2022-08-20T06:45:41.461Z,19.90
2022-08-20T06:49:24.065Z,20.20
2022-08-20T06:53:08.577Z,20.40
2022-08-20T06:56:55.043Z,20.60
2022-08-20T07:00:40.621Z,20.60
2022-08-20T07:04:23.625Z,20.70
2022-08-20T07:08:06.754Z,20.60
2022-08-20T07:11:49.594Z,20.70
2022-08-20T07:15:33.580Z,20.90
2022-08-20T07:19:16.238Z,21.10
2022-08-20T07:22:59.025Z,21.00
2022-08-20T07:26:41.688Z,21.00
2022-08-20T07:30:56.562Z,20.90
2022-08-20T07:34:43.667Z,21.20
2022-08-20T07:38:30.117Z,21.20
2022-08-20T07:42:12.979Z,21.10
2022-08-20T07:46:00.566Z,21.30
2022-08-20T07:49:44.643Z,21.20
2022-08-20T07:53:29.346Z,21.20
2022-08-20T07:57:17.224Z,21.10
2022-08-20T08:01:00.049Z,21.20
2022-08-20T08:04:43.861Z,21.10
2022-08-20T08:08:29.767Z,21.00
2022-08-20T08:12:14.054Z,21.00
2022-08-20T08:16:01.811Z,20.90
2022-08-20T08:19:49.414Z,20.90
2022-08-20T08:23:35.668Z,21.40
2022-08-20T08:27:21.932Z,21.60
2022-08-20T08:31:04.768Z,21.70
2022-08-20T08:34:52.194Z,21.80
2022-08-20T08:38:36.675Z,21.50
2022-08-20T08:42:27.300Z,21.00
2022-08-20T08:46:12.499Z,20.90
2022-08-20T08:49:57.493Z,21.00
2022-08-20T08:53:46.472Z,21.00
2022-08-20T08:57:30.153Z,21.00
2022-08-20T09:01:54.582Z,21.60
2022-08-20T09:05:21.519Z,21.70
2022-08-20T09:09:07.094Z,21.90
2022-08-20T09:12:49.681Z,21.60
2022-08-20T09:16:52.504Z,21.40
2022-08-20T09:20:37.686Z,20.70
2022-08-20T09:24:20.840Z,20.40
2022-08-20T09:28:04.232Z,20.40
2022-08-20T09:31:48.849Z,20.40
2022-08-20T09:35:31.989Z,20.00
2022-08-20T09:39:16.441Z,20.00
2022-08-20T09:42:59.765Z,20.20
2022-08-20T09:46:42.833Z,20.20
2022-08-20T09:50:25.528Z,19.80
2022-08-20T09:54:08.032Z,19.70
2022-08-20T09:57:52.882Z,20.20
2022-08-20T10:01:35.546Z,20.40
2022-08-20T10:05:18.282Z,21.20
2022-08-20T10:09:04.103Z,21.40
2022-08-20T10:12:48.792Z,21.60
2022-08-20T10:16:35.626Z,21.70
2022-08-20T10:20:19.035Z,21.40
2022-08-20T10:24:01.763Z,21.90
2022-08-20T10:27:44.849Z,22.20
2022-08-20T10:31:27.476Z,22.60
2022-08-20T10:35:11.564Z,22.80
2022-08-20T10:38:54.169Z,22.90
2022-08-20T10:42:41.806Z,23.00
2022-08-20T10:46:25.097Z,22.90
2022-08-20T10:50:12.456Z,23.20
2022-08-20T10:53:55.042Z,23.80
2022-08-20T10:57:39.732Z,24.00
2022-08-20T11:01:32.584Z,23.90
2022-08-20T11:05:17.011Z,23.20
2022-08-20T11:08:59.473Z,23.20
2022-08-20T11:12:42.204Z,23.50
2022-08-20T11:16:29.497Z,23.20
2022-08-20T11:20:13.874Z,23.40
2022-08-20T11:24:02.238Z,23.20
2022-08-20T11:27:47.789Z,23.00
2022-08-20T11:31:30.971Z,24.00
2022-08-20T11:35:41.021Z,23.50
2022-08-20T11:39:18.618Z,23.50
2022-08-20T11:43:17.937Z,23.70
2022-08-20T11:47:03.638Z,23.30
2022-08-20T11:50:47.256Z,23.20
2022-08-20T11:54:32.506Z,23.30
2022-08-20T11:58:15.530Z,23.20
2022-08-20T12:02:03.213Z,23.10
2022-08-20T12:05:47.547Z,23.20
2022-08-20T12:09:31.560Z,23.40
2022-08-20T12:13:14.161Z,23.60
2022-08-20T12:16:56.701Z,23.10
2022-08-20T12:20:39.115Z,23.30
2022-08-20T12:24:21.624Z,23.30
2022-08-20T12:28:06.000Z,23.30
2022-08-20T12:31:48.288Z,23.90
2022-08-20T12:35:31.512Z,23.70
2022-08-20T12:39:14.267Z,23.70
2022-08-20T12:42:57.156Z,24.20
2022-08-20T12:46:41.665Z,24.30
2022-08-20T12:50:31.308Z,24.50
2022-08-20T12:54:14.554Z,25.00
2022-08-20T12:57:59.149Z,25.00
2022-08-20T13:01:43.304Z,25.20
2022-08-20T13:05:26.335Z,24.90
2022-08-20T13:09:09.119Z,25.10
2022-08-20T13:12:52.075Z,24.50
2022-08-20T13:16:34.680Z,24.10
2022-08-20T13:20:18.484Z,24.20
2022-08-20T13:24:01.062Z,24.20
2022-08-20T13:27:44.457Z,24.30
2022-08-20T13:31:27.145Z,24.30
2022-08-20T13:35:11.699Z,24.50
2022-08-20T13:38:55.945Z,24.20
2022-08-20T13:42:39.220Z,24.00
2022-08-20T13:46:22.192Z,23.90
2022-08-20T13:50:06.625Z,23.60
2022-08-20T13:53:48.990Z,23.50
2022-08-20T13:57:34.226Z,23.60
2022-08-20T14:01:17.008Z,24.00
2022-08-20T14:04:59.728Z,24.00
2022-08-20T14:08:42.349Z,24.10
2022-08-20T14:12:26.029Z,24.40
2022-08-20T14:16:21.264Z,24.80
2022-08-20T14:20:13.481Z,24.50
2022-08-20T14:23:58.133Z,24.00
2022-08-20T14:27:41.791Z,24.20
2022-08-20T14:31:26.195Z,24.20
2022-08-20T14:35:10.012Z,24.10
2022-08-20T14:38:52.479Z,24.10
2022-08-20T14:42:35.211Z,24.30
2022-08-20T14:46:17.627Z,24.30
2022-08-20T14:50:05.267Z,24.30
2022-08-20T14:53:47.782Z,24.10
2022-08-20T14:57:30.263Z,23.70
2022-08-20T15:01:12.666Z,23.90
2022-08-20T15:04:55.755Z,24.10
2022-08-20T15:08:39.476Z,24.40
2022-08-20T15:12:21.980Z,24.30
2022-08-20T15:16:07.313Z,24.40
2022-08-20T15:19:50.296Z,24.60
2022-08-20T15:23:33.041Z,24.70
2022-08-20T15:27:22.467Z,24.60
2022-08-20T15:31:10.461Z,24.30
2022-08-20T15:34:52.982Z,24.10
2022-08-20T15:38:35.628Z,24.10
2022-08-20T15:42:20.298Z,24.10
2022-08-20T15:46:05.954Z,24.20
2022-08-20T15:49:50.340Z,24.10
2022-08-20T15:53:40.653Z,24.00
2022-08-20T15:57:37.209Z,24.10
2022-08-20T16:01:25.674Z,24.20
2022-08-20T16:05:18.289Z,24.10
2022-08-20T16:09:20.760Z,24.10
2022-08-20T16:13:13.126Z,24.10
2022-08-20T16:17:06.233Z,24.10
2022-08-20T16:20:51.214Z,24.20
2022-08-20T16:24:34.277Z,24.30
2022-08-20T16:28:25.992Z,24.10
2022-08-20T16:32:22.091Z,24.10
2022-08-20T16:36:10.681Z,24.10
2022-08-20T16:40:02.722Z,24.00
2022-08-20T16:43:53.467Z,24.10
2022-08-20T16:47:39.848Z,24.00
2022-08-20T16:51:38.853Z,24.20
2022-08-20T16:55:23.509Z,24.30
2022-08-20T16:59:26.556Z,24.30
2022-08-20T17:03:21.503Z,24.30
2022-08-20T17:07:29.340Z,24.30
2022-08-20T17:11:17.888Z,24.10
2022-08-20T17:15:02.177Z,24.20
2022-08-20T17:18:46.812Z,24.10
2022-08-20T17:22:31.506Z,24.10
2022-08-20T17:26:22.006Z,24.00
2022-08-20T17:30:11.227Z,24.00
2022-08-20T17:34:03.158Z,23.90
2022-08-20T17:37:54.027Z,23.90
2022-08-20T17:41:37.649Z,23.60
2022-08-20T17:45:24.404Z,23.30
2022-08-20T17:49:10.785Z,23.10
2022-08-20T17:52:57.374Z,22.70
2022-08-20T17:56:43.632Z,22.60
2022-08-20T18:00:29.148Z,22.30
2022-08-20T18:04:12.413Z,22.20
2022-08-20T18:08:08.467Z,22.10
2022-08-20T18:11:59.681Z,21.90
2022-08-20T18:15:50.380Z,21.80
2022-08-20T18:20:11.333Z,21.60
2022-08-20T18:23:59.424Z,21.40
2022-08-20T18:27:46.528Z,21.20
2022-08-20T18:31:32.983Z,21.10
2022-08-20T18:35:21.581Z,20.90
2022-08-20T18:39:08.724Z,20.80
2022-08-20T18:42:51.536Z,20.70
2022-08-20T18:46:36.654Z,20.50
2022-08-20T18:50:24.884Z,20.40
2022-08-20T18:54:07.689Z,20.20
2022-08-20T18:57:55.423Z,20.10
2022-08-20T19:01:41.286Z,20.00
2022-08-20T19:05:30.209Z,19.90
2022-08-20T19:09:19.277Z,19.80
2022-08-20T19:13:31.693Z,19.60
2022-08-20T19:17:20.612Z,19.60
2022-08-20T19:21:05.597Z,19.50
2022-08-20T19:24:59.482Z,19.40
2022-08-20T19:28:45.843Z,19.30
2022-08-20T19:32:32.941Z,19.30
2022-08-20T19:36:17.883Z,19.30
2022-08-20T19:40:05.632Z,19.10
2022-08-20T19:43:48.673Z,19.10
2022-08-20T19:47:37.664Z,19.00
2022-08-20T19:51:30.919Z,18.90
2022-08-20T19:55:22.676Z,18.80
2022-08-20T19:59:07.487Z,18.70
2022-08-20T20:02:51.609Z,18.60
2022-08-20T20:06:38.641Z,18.60
2022-08-20T20:10:32.910Z,18.50
2022-08-20T20:14:18.605Z,18.50
2022-08-20T20:18:02.650Z,18.50
2022-08-20T20:21:48.510Z,18.40
2022-08-20T20:25:41.332Z,18.30
2022-08-20T20:29:24.872Z,18.30
2022-08-20T20:33:16.709Z,18.30
2022-08-20T20:37:06.110Z,18.20
2022-08-20T20:40:51.441Z,18.20
2022-08-20T20:44:37.622Z,18.20
2022-08-20T20:48:25.395Z,18.20
2022-08-20T20:52:20.840Z,18.20
2022-08-20T20:56:03.285Z,18.30
2022-08-20T20:59:48.849Z,18.40
2022-08-20T21:03:32.872Z,18.60
2022-08-20T21:07:18.559Z,18.70
2022-08-20T21:11:01.471Z,18.60
2022-08-20T21:14:45.308Z,18.60
2022-08-20T21:18:27.596Z,18.60
2022-08-20T21:22:11.654Z,18.60
2022-08-20T21:25:54.276Z,18.60
2022-08-20T21:29:37.806Z,18.70
2022-08-20T21:33:20.457Z,18.60
2022-08-20T21:37:03.045Z,18.50
2022-08-20T21:40:47.335Z,18.40
2022-08-20T21:44:32.562Z,18.40
2022-08-20T21:48:15.638Z,18.40
2022-08-20T21:51:59.147Z,18.30
2022-08-20T21:55:41.793Z,18.20
2022-08-20T21:59:26.535Z,18.20
2022-08-20T22:03:09.207Z,18.20
2022-08-20T22:06:57.364Z,18.10
2022-08-20T22:10:40.154Z,18.20
2022-08-20T22:14:22.781Z,18.10
2022-08-20T22:18:07.183Z,18.10
2022-08-20T22:21:50.190Z,18.00
2022-08-20T22:25:33.592Z,17.90
2022-08-20T22:29:16.413Z,17.80
2022-08-20T22:33:03.320Z,17.80
2022-08-20T22:53:08.719Z,17.00
2022-08-20T22:56:53.483Z,16.80
2022-08-20T23:00:36.661Z,16.80
2022-08-20T23:04:24.939Z,16.90
2022-08-20T23:08:09.333Z,16.90
2022-08-20T23:11:51.897Z,16.90
2022-08-20T23:15:38.854Z,16.90
2022-08-20T23:19:28.777Z,16.80
2022-08-20T23:23:12.732Z,16.80
2022-08-20T23:26:55.409Z,16.70
2022-08-20T23:30:37.915Z,16.70
2022-08-20T23:34:20.615Z,16.70
2022-08-20T23:38:03.460Z,16.70
2022-08-20T23:41:48.263Z,16.60
2022-08-20T23:45:31.502Z,16.60
2022-08-20T23:49:14.292Z,16.60
2022-08-20T23:52:58.604Z,16.50
2022-08-20T23:56:41.423Z,16.50
